sensor_id;sensor_type;location;lat;lon;timestamp;P1;durP1;ratioP1;P2;durP2;ratioP2
62798;SDS011;48842;51.046;13.796;2024-03-08T00:02:11;32.30;;;20.80;;
62798;SDS011;48842;51.046;13.796;2024-03-08T00:04:38;33.90;;;20.87;;
62798;SDS011;48842;51.046;13.796;2024-03-08T00:07:03;37.43;;;20.87;;
62798;SDS011;48842;51.046;13.796;2024-03-08T00:09:28;32.33;;;20.20;;
62798;SDS011;48842;51.046;13.796;2024-03-08T00:11:55;33.60;;;20.47;;
62798;SDS011;48842;51.046;13.796;2024-03-08T00:14:20;28.57;;;20.23;;
62798;SDS011;48842;51.046;13.796;2024-03-08T00:16:46;34.23;;;19.70;;
62798;SDS011;48842;51.046;13.796;2024-03-08T00:19:12;31.00;;;18.83;;
62798;SDS011;48842;51.046;13.796;2024-03-08T00:21:37;33.53;;;20.50;;
62798;SDS011;48842;51.046;13.796;2024-03-08T00:24:02;33.80;;;20.80;;
62798;SDS011;48842;51.046;13.796;2024-03-08T00:26:28;33.90;;;21.57;;
62798;SDS011;48842;51.046;13.796;2024-03-08T00:28:54;30.43;;;19.70;;
62798;SDS011;48842;51.046;13.796;2024-03-08T00:31:20;33.50;;;21.10;;
62798;SDS011;48842;51.046;13.796;2024-03-08T00:33:45;31.70;;;20.23;;
62798;SDS011;48842;51.046;13.796;2024-03-08T00:36:10;40.37;;;24.13;;
62798;SDS011;48842;51.046;13.796;2024-03-08T00:38:35;34.00;;;21.50;;
62798;SDS011;48842;51.046;13.796;2024-03-08T00:41:01;35.40;;;22.07;;
62798;SDS011;48842;51.046;13.796;2024-03-08T00:43:27;31.60;;;20.43;;
62798;SDS011;48842;51.046;13.796;2024-03-08T00:45:52;33.00;;;21.20;;
62798;SDS011;48842;51.046;13.796;2024-03-08T00:48:19;33.00;;;20.93;;
62798;SDS011;48842;51.046;13.796;2024-03-08T00:50:44;30.93;;;20.33;;
62798;SDS011;48842;51.046;13.796;2024-03-08T00:53:10;34.10;;;21.60;;
62798;SDS011;48842;51.046;13.796;2024-03-08T00:55:39;31.77;;;20.40;;
62798;SDS011;48842;51.046;13.796;2024-03-08T00:58:04;34.10;;;21.50;;
62798;SDS011;48842;51.046;13.796;2024-03-08T01:00:30;34.40;;;19.70;;
62798;SDS011;48842;51.046;13.796;2024-03-08T01:02:56;34.93;;;20.63;;
62798;SDS011;48842;51.046;13.796;2024-03-08T01:05:22;33.33;;;20.43;;
62798;SDS011;48842;51.046;13.796;2024-03-08T01:07:49;33.63;;;21.33;;
62798;SDS011;48842;51.046;13.796;2024-03-08T01:10:15;32.50;;;19.10;;
62798;SDS011;48842;51.046;13.796;2024-03-08T01:12:40;37.13;;;21.27;;
62798;SDS011;48842;51.046;13.796;2024-03-08T01:15:07;33.47;;;21.40;;
62798;SDS011;48842;51.046;13.796;2024-03-08T01:17:34;33.23;;;20.80;;
62798;SDS011;48842;51.046;13.796;2024-03-08T01:19:59;32.57;;;20.57;;
62798;SDS011;48842;51.046;13.796;2024-03-08T01:22:24;32.30;;;19.10;;
62798;SDS011;48842;51.046;13.796;2024-03-08T01:24:49;32.20;;;19.43;;
62798;SDS011;48842;51.046;13.796;2024-03-08T01:27:15;34.10;;;21.00;;
62798;SDS011;48842;51.046;13.796;2024-03-08T01:29:40;34.97;;;21.10;;
62798;SDS011;48842;51.046;13.796;2024-03-08T01:32:05;32.70;;;19.30;;
62798;SDS011;48842;51.046;13.796;2024-03-08T01:34:31;32.90;;;20.27;;
62798;SDS011;48842;51.046;13.796;2024-03-08T01:36:58;36.53;;;19.50;;
62798;SDS011;48842;51.046;13.796;2024-03-08T01:39:23;36.33;;;21.20;;
62798;SDS011;48842;51.046;13.796;2024-03-08T01:41:48;34.20;;;20.80;;
62798;SDS011;48842;51.046;13.796;2024-03-08T01:44:14;39.57;;;22.33;;
62798;SDS011;48842;51.046;13.796;2024-03-08T01:46:45;32.80;;;20.50;;
62798;SDS011;48842;51.046;13.796;2024-03-08T01:49:12;36.50;;;23.27;;
62798;SDS011;48842;51.046;13.796;2024-03-08T01:51:39;37.97;;;22.07;;
62798;SDS011;48842;51.046;13.796;2024-03-08T01:54:06;32.47;;;20.87;;
62798;SDS011;48842;51.046;13.796;2024-03-08T01:56:32;38.20;;;21.90;;
62798;SDS011;48842;51.046;13.796;2024-03-08T01:58:58;35.47;;;21.37;;
62798;SDS011;48842;51.046;13.796;2024-03-08T02:01:25;31.83;;;20.73;;
62798;SDS011;48842;51.046;13.796;2024-03-08T02:03:51;34.20;;;21.77;;
62798;SDS011;48842;51.046;13.796;2024-03-08T02:06:16;33.60;;;21.00;;
62798;SDS011;48842;51.046;13.796;2024-03-08T02:08:42;34.07;;;21.30;;
62798;SDS011;48842;51.046;13.796;2024-03-08T02:11:11;34.83;;;22.27;;
62798;SDS011;48842;51.046;13.796;2024-03-08T02:13:37;31.80;;;20.40;;
62798;SDS011;48842;51.046;13.796;2024-03-08T02:16:02;33.13;;;22.00;;
62798;SDS011;48842;51.046;13.796;2024-03-08T02:18:30;33.13;;;21.50;;
62798;SDS011;48842;51.046;13.796;2024-03-08T02:20:56;37.47;;;21.27;;
62798;SDS011;48842;51.046;13.796;2024-03-08T02:23:22;34.40;;;21.63;;
62798;SDS011;48842;51.046;13.796;2024-03-08T02:25:49;37.80;;;21.53;;
62798;SDS011;48842;51.046;13.796;2024-03-08T02:28:15;39.37;;;22.07;;
62798;SDS011;48842;51.046;13.796;2024-03-08T02:30:44;35.57;;;21.70;;
62798;SDS011;48842;51.046;13.796;2024-03-08T02:33:12;34.53;;;20.33;;
62798;SDS011;48842;51.046;13.796;2024-03-08T02:35:38;32.20;;;21.55;;
62798;SDS011;48842;51.046;13.796;2024-03-08T02:38:04;37.70;;;22.07;;
62798;SDS011;48842;51.046;13.796;2024-03-08T02:40:29;31.17;;;20.30;;
62798;SDS011;48842;51.046;13.796;2024-03-08T02:42:55;33.97;;;21.60;;
62798;SDS011;48842;51.046;13.796;2024-03-08T02:45:20;35.90;;;22.17;;
62798;SDS011;48842;51.046;13.796;2024-03-08T02:47:45;38.03;;;21.30;;
62798;SDS011;48842;51.046;13.796;2024-03-08T02:50:11;42.00;;;21.77;;
62798;SDS011;48842;51.046;13.796;2024-03-08T02:52:36;34.13;;;22.53;;
62798;SDS011;48842;51.046;13.796;2024-03-08T02:55:02;32.53;;;20.57;;
62798;SDS011;48842;51.046;13.796;2024-03-08T02:57:28;39.77;;;21.40;;
62798;SDS011;48842;51.046;13.796;2024-03-08T02:59:53;30.03;;;20.13;;
62798;SDS011;48842;51.046;13.796;2024-03-08T03:02:19;32.10;;;19.57;;
62798;SDS011;48842;51.046;13.796;2024-03-08T03:04:44;35.43;;;21.73;;
62798;SDS011;48842;51.046;13.796;2024-03-08T03:07:09;38.53;;;23.03;;
62798;SDS011;48842;51.046;13.796;2024-03-08T03:09:36;32.57;;;19.70;;
62798;SDS011;48842;51.046;13.796;2024-03-08T03:12:01;32.87;;;21.73;;
62798;SDS011;48842;51.046;13.796;2024-03-08T03:14:27;40.10;;;21.13;;
62798;SDS011;48842;51.046;13.796;2024-03-08T03:16:52;33.10;;;20.00;;
62798;SDS011;48842;51.046;13.796;2024-03-08T03:19:19;32.47;;;20.83;;
62798;SDS011;48842;51.046;13.796;2024-03-08T03:21:44;40.43;;;23.30;;
62798;SDS011;48842;51.046;13.796;2024-03-08T03:24:10;32.60;;;20.90;;
62798;SDS011;48842;51.046;13.796;2024-03-08T03:26:36;38.47;;;22.90;;
62798;SDS011;48842;51.046;13.796;2024-03-08T03:29:04;32.27;;;20.37;;
62798;SDS011;48842;51.046;13.796;2024-03-08T03:31:31;31.57;;;20.13;;
62798;SDS011;48842;51.046;13.796;2024-03-08T03:33:56;32.53;;;20.77;;
62798;SDS011;48842;51.046;13.796;2024-03-08T03:36:26;36.33;;;21.87;;
62798;SDS011;48842;51.046;13.796;2024-03-08T03:38:52;38.00;;;21.20;;
62798;SDS011;48842;51.046;13.796;2024-03-08T03:41:29;36.63;;;22.00;;
62798;SDS011;48842;51.046;13.796;2024-03-08T03:43:54;32.40;;;20.87;;
62798;SDS011;48842;51.046;13.796;2024-03-08T03:46:20;35.93;;;20.70;;
62798;SDS011;48842;51.046;13.796;2024-03-08T03:48:46;37.23;;;21.30;;
62798;SDS011;48842;51.046;13.796;2024-03-08T03:51:11;35.63;;;21.27;;
62798;SDS011;48842;51.046;13.796;2024-03-08T03:53:36;39.10;;;21.03;;
62798;SDS011;48842;51.046;13.796;2024-03-08T03:56:02;37.57;;;22.50;;
62798;SDS011;48842;51.046;13.796;2024-03-08T03:58:27;35.23;;;21.20;;
62798;SDS011;48842;51.046;13.796;2024-03-08T04:00:52;37.37;;;21.90;;
62798;SDS011;48842;51.046;13.796;2024-03-08T04:03:19;35.63;;;22.47;;
62798;SDS011;48842;51.046;13.796;2024-03-08T04:05:46;33.00;;;20.43;;
62798;SDS011;48842;51.046;13.796;2024-03-08T04:08:11;34.30;;;21.37;;
62798;SDS011;48842;51.046;13.796;2024-03-08T04:10:36;41.70;;;22.07;;
62798;SDS011;48842;51.046;13.796;2024-03-08T04:13:02;39.03;;;23.23;;
62798;SDS011;48842;51.046;13.796;2024-03-08T04:15:28;35.50;;;21.67;;
62798;SDS011;48842;51.046;13.796;2024-03-08T04:17:54;35.53;;;20.93;;
62798;SDS011;48842;51.046;13.796;2024-03-08T04:20:19;35.07;;;21.30;;
62798;SDS011;48842;51.046;13.796;2024-03-08T04:22:46;27.40;;;18.83;;
62798;SDS011;48842;51.046;13.796;2024-03-08T04:25:14;32.45;;;19.77;;
62798;SDS011;48842;51.046;13.796;2024-03-08T04:27:39;37.63;;;21.07;;
62798;SDS011;48842;51.046;13.796;2024-03-08T04:30:05;33.38;;;21.27;;
62798;SDS011;48842;51.046;13.796;2024-03-08T04:32:34;38.10;;;19.63;;
62798;SDS011;48842;51.046;13.796;2024-03-08T04:34:59;32.30;;;21.10;;
62798;SDS011;48842;51.046;13.796;2024-03-08T04:37:28;33.63;;;21.77;;
62798;SDS011;48842;51.046;13.796;2024-03-08T04:39:56;30.35;;;20.38;;
62798;SDS011;48842;51.046;13.796;2024-03-08T04:42:23;32.70;;;20.47;;
62798;SDS011;48842;51.046;13.796;2024-03-08T04:44:50;38.30;;;21.70;;
62798;SDS011;48842;51.046;13.796;2024-03-08T04:47:15;39.93;;;20.77;;
62798;SDS011;48842;51.046;13.796;2024-03-08T04:49:42;34.78;;;21.25;;
62798;SDS011;48842;51.046;13.796;2024-03-08T04:52:08;33.10;;;21.03;;
62798;SDS011;48842;51.046;13.796;2024-03-08T04:54:33;37.80;;;20.67;;
62798;SDS011;48842;51.046;13.796;2024-03-08T04:57:00;34.83;;;21.83;;
62798;SDS011;48842;51.046;13.796;2024-03-08T04:59:26;37.47;;;22.38;;
62798;SDS011;48842;51.046;13.796;2024-03-08T05:01:52;38.42;;;21.63;;
62798;SDS011;48842;51.046;13.796;2024-03-08T05:04:17;35.60;;;22.20;;
62798;SDS011;48842;51.046;13.796;2024-03-08T05:06:43;33.33;;;21.60;;
62798;SDS011;48842;51.046;13.796;2024-03-08T05:09:08;37.37;;;21.70;;
62798;SDS011;48842;51.046;13.796;2024-03-08T05:11:41;33.75;;;20.85;;
62798;SDS011;48842;51.046;13.796;2024-03-08T05:14:07;37.75;;;21.95;;
62798;SDS011;48842;51.046;13.796;2024-03-08T05:16:33;39.20;;;22.57;;
62798;SDS011;48842;51.046;13.796;2024-03-08T05:18:58;42.80;;;23.37;;
62798;SDS011;48842;51.046;13.796;2024-03-08T05:21:24;44.10;;;23.80;;
62798;SDS011;48842;51.046;13.796;2024-03-08T05:23:50;43.63;;;24.07;;
62798;SDS011;48842;51.046;13.796;2024-03-08T05:26:15;36.58;;;22.20;;
62798;SDS011;48842;51.046;13.796;2024-03-08T05:28:41;40.13;;;23.50;;
62798;SDS011;48842;51.046;13.796;2024-03-08T05:31:06;35.33;;;21.73;;
62798;SDS011;48842;51.046;13.796;2024-03-08T05:33:32;35.27;;;21.27;;
62798;SDS011;48842;51.046;13.796;2024-03-08T05:36:00;38.83;;;22.30;;
62798;SDS011;48842;51.046;13.796;2024-03-08T05:38:27;37.10;;;22.85;;
62798;SDS011;48842;51.046;13.796;2024-03-08T05:40:53;35.47;;;21.77;;
62798;SDS011;48842;51.046;13.796;2024-03-08T05:43:19;38.05;;;22.45;;
62798;SDS011;48842;51.046;13.796;2024-03-08T05:45:45;36.67;;;20.97;;
62798;SDS011;48842;51.046;13.796;2024-03-08T05:48:10;35.87;;;22.73;;
62798;SDS011;48842;51.046;13.796;2024-03-08T05:50:37;40.28;;;23.13;;
62798;SDS011;48842;51.046;13.796;2024-03-08T05:53:03;36.87;;;21.37;;
62798;SDS011;48842;51.046;13.796;2024-03-08T05:55:31;36.75;;;21.75;;
62798;SDS011;48842;51.046;13.796;2024-03-08T05:58:00;32.97;;;21.05;;
62798;SDS011;48842;51.046;13.796;2024-03-08T06:00:26;37.42;;;23.13;;
62798;SDS011;48842;51.046;13.796;2024-03-08T06:02:51;33.50;;;21.90;;
62798;SDS011;48842;51.046;13.796;2024-03-08T06:05:16;35.60;;;20.87;;
62798;SDS011;48842;51.046;13.796;2024-03-08T06:07:42;32.17;;;21.60;;
62798;SDS011;48842;51.046;13.796;2024-03-08T06:10:08;34.03;;;21.33;;
62798;SDS011;48842;51.046;13.796;2024-03-08T06:12:35;33.78;;;22.48;;
62798;SDS011;48842;51.046;13.796;2024-03-08T06:15:05;38.33;;;22.67;;
62798;SDS011;48842;51.046;13.796;2024-03-08T06:17:31;38.55;;;22.15;;
62798;SDS011;48842;51.046;13.796;2024-03-08T06:19:56;41.50;;;22.70;;
62798;SDS011;48842;51.046;13.796;2024-03-08T06:22:21;36.07;;;22.90;;
62798;SDS011;48842;51.046;13.796;2024-03-08T06:24:46;41.07;;;21.87;;
62798;SDS011;48842;51.046;13.796;2024-03-08T06:27:12;37.70;;;22.93;;
62798;SDS011;48842;51.046;13.796;2024-03-08T06:29:37;38.57;;;22.90;;
62798;SDS011;48842;51.046;13.796;2024-03-08T06:32:03;39.23;;;23.87;;
62798;SDS011;48842;51.046;13.796;2024-03-08T06:34:28;44.03;;;24.43;;
62798;SDS011;48842;51.046;13.796;2024-03-08T06:36:53;38.13;;;21.57;;
62798;SDS011;48842;51.046;13.796;2024-03-08T06:39:25;35.05;;;21.52;;
62798;SDS011;48842;51.046;13.796;2024-03-08T06:41:50;35.77;;;22.47;;
62798;SDS011;48842;51.046;13.796;2024-03-08T06:44:16;42.10;;;23.40;;
62798;SDS011;48842;51.046;13.796;2024-03-08T06:46:41;33.93;;;21.90;;
62798;SDS011;48842;51.046;13.796;2024-03-08T06:49:06;38.27;;;22.73;;
62798;SDS011;48842;51.046;13.796;2024-03-08T06:51:32;38.60;;;22.30;;
62798;SDS011;48842;51.046;13.796;2024-03-08T06:53:58;37.07;;;22.27;;
62798;SDS011;48842;51.046;13.796;2024-03-08T06:56:23;36.60;;;21.87;;
62798;SDS011;48842;51.046;13.796;2024-03-08T06:58:48;45.77;;;24.77;;
62798;SDS011;48842;51.046;13.796;2024-03-08T07:01:14;38.23;;;23.27;;
62798;SDS011;48842;51.046;13.796;2024-03-08T07:03:41;36.60;;;22.30;;
62798;SDS011;48842;51.046;13.796;2024-03-08T07:06:09;38.15;;;23.27;;
62798;SDS011;48842;51.046;13.796;2024-03-08T07:08:37;46.40;;;23.90;;
62798;SDS011;48842;51.046;13.796;2024-03-08T07:11:02;33.73;;;22.20;;
62798;SDS011;48842;51.046;13.796;2024-03-08T07:13:28;36.70;;;23.60;;
62798;SDS011;48842;51.046;13.796;2024-03-08T07:15:54;45.75;;;24.75;;
62798;SDS011;48842;51.046;13.796;2024-03-08T07:18:20;38.97;;;23.73;;
62798;SDS011;48842;51.046;13.796;2024-03-08T07:20:47;37.63;;;23.43;;
62798;SDS011;48842;51.046;13.796;2024-03-08T07:23:12;42.10;;;24.30;;
62798;SDS011;48842;51.046;13.796;2024-03-08T07:25:57;36.87;;;21.97;;
62798;SDS011;48842;51.046;13.796;2024-03-08T07:28:23;42.17;;;23.33;;
62798;SDS011;48842;51.046;13.796;2024-03-08T07:30:48;44.37;;;22.10;;
62798;SDS011;48842;51.046;13.796;2024-03-08T07:33:13;41.47;;;22.33;;
62798;SDS011;48842;51.046;13.796;2024-03-08T07:35:39;41.63;;;24.40;;
62798;SDS011;48842;51.046;13.796;2024-03-08T07:38:05;43.22;;;25.10;;
62798;SDS011;48842;51.046;13.796;2024-03-08T07:40:37;37.63;;;22.57;;
62798;SDS011;48842;51.046;13.796;2024-03-08T07:43:06;40.37;;;22.60;;
62798;SDS011;48842;51.046;13.796;2024-03-08T07:45:31;38.33;;;23.77;;
62798;SDS011;48842;51.046;13.796;2024-03-08T07:47:57;39.40;;;23.67;;
62798;SDS011;48842;51.046;13.796;2024-03-08T07:50:24;42.57;;;24.90;;
62798;SDS011;48842;51.046;13.796;2024-03-08T07:52:49;36.57;;;24.10;;
62798;SDS011;48842;51.046;13.796;2024-03-08T07:55:14;38.67;;;23.57;;
62798;SDS011;48842;51.046;13.796;2024-03-08T07:57:40;37.80;;;22.80;;
62798;SDS011;48842;51.046;13.796;2024-03-08T08:00:05;39.77;;;23.07;;
62798;SDS011;48842;51.046;13.796;2024-03-08T08:02:33;39.37;;;23.43;;
62798;SDS011;48842;51.046;13.796;2024-03-08T08:04:59;44.63;;;23.00;;
62798;SDS011;48842;51.046;13.796;2024-03-08T08:07:24;37.77;;;23.10;;
62798;SDS011;48842;51.046;13.796;2024-03-08T08:09:49;33.83;;;21.53;;
62798;SDS011;48842;51.046;13.796;2024-03-08T08:12:15;35.37;;;22.97;;
62798;SDS011;48842;51.046;13.796;2024-03-08T08:14:41;42.43;;;23.67;;
62798;SDS011;48842;51.046;13.796;2024-03-08T08:17:06;43.83;;;22.70;;
62798;SDS011;48842;51.046;13.796;2024-03-08T08:19:33;31.43;;;21.10;;
62798;SDS011;48842;51.046;13.796;2024-03-08T08:22:00;31.93;;;20.97;;
62798;SDS011;48842;51.046;13.796;2024-03-08T08:24:26;39.40;;;23.43;;
62798;SDS011;48842;51.046;13.796;2024-03-08T08:26:52;40.20;;;22.40;;
62798;SDS011;48842;51.046;13.796;2024-03-08T08:29:17;36.77;;;22.30;;
62798;SDS011;48842;51.046;13.796;2024-03-08T08:31:43;36.07;;;22.10;;
62798;SDS011;48842;51.046;13.796;2024-03-08T08:34:11;39.17;;;23.13;;
62798;SDS011;48842;51.046;13.796;2024-03-08T08:36:36;32.10;;;20.67;;
62798;SDS011;48842;51.046;13.796;2024-03-08T08:39:02;35.30;;;21.10;;
62798;SDS011;48842;51.046;13.796;2024-03-08T08:41:28;37.23;;;21.67;;
62798;SDS011;48842;51.046;13.796;2024-03-08T08:43:54;40.33;;;22.40;;
62798;SDS011;48842;51.046;13.796;2024-03-08T08:46:19;33.47;;;20.07;;
62798;SDS011;48842;51.046;13.796;2024-03-08T08:48:46;34.83;;;19.67;;
62798;SDS011;48842;51.046;13.796;2024-03-08T08:51:11;34.30;;;18.30;;
62798;SDS011;48842;51.046;13.796;2024-03-08T08:53:37;27.63;;;18.57;;
62798;SDS011;48842;51.046;13.796;2024-03-08T08:56:03;31.20;;;18.70;;
62798;SDS011;48842;51.046;13.796;2024-03-08T08:58:29;36.27;;;18.60;;
62798;SDS011;48842;51.046;13.796;2024-03-08T09:00:54;27.17;;;17.40;;
62798;SDS011;48842;51.046;13.796;2024-03-08T09:03:19;34.10;;;21.10;;
62798;SDS011;48842;51.046;13.796;2024-03-08T09:05:45;28.60;;;18.27;;
62798;SDS011;48842;51.046;13.796;2024-03-08T09:08:10;27.33;;;19.10;;
62798;SDS011;48842;51.046;13.796;2024-03-08T09:10:35;28.50;;;18.70;;
62798;SDS011;48842;51.046;13.796;2024-03-08T09:13:01;32.93;;;19.33;;
62798;SDS011;48842;51.046;13.796;2024-03-08T09:15:29;30.07;;;18.17;;
62798;SDS011;48842;51.046;13.796;2024-03-08T09:17:54;29.67;;;19.40;;
62798;SDS011;48842;51.046;13.796;2024-03-08T09:20:20;30.13;;;18.93;;
62798;SDS011;48842;51.046;13.796;2024-03-08T09:22:46;29.60;;;18.27;;
62798;SDS011;48842;51.046;13.796;2024-03-08T09:25:11;29.50;;;18.67;;
62798;SDS011;48842;51.046;13.796;2024-03-08T09:27:36;28.53;;;18.83;;
62798;SDS011;48842;51.046;13.796;2024-03-08T09:30:02;31.77;;;18.50;;
62798;SDS011;48842;51.046;13.796;2024-03-08T09:32:29;38.10;;;18.60;;
62798;SDS011;48842;51.046;13.796;2024-03-08T09:34:54;32.93;;;18.53;;
62798;SDS011;48842;51.046;13.796;2024-03-08T09:37:20;27.20;;;17.30;;
62798;SDS011;48842;51.046;13.796;2024-03-08T09:39:46;28.70;;;18.10;;
62798;SDS011;48842;51.046;13.796;2024-03-08T09:42:11;25.57;;;17.23;;
62798;SDS011;48842;51.046;13.796;2024-03-08T09:44:39;28.23;;;18.10;;
62798;SDS011;48842;51.046;13.796;2024-03-08T09:47:08;28.60;;;16.33;;
62798;SDS011;48842;51.046;13.796;2024-03-08T09:49:38;26.23;;;17.00;;
62798;SDS011;48842;51.046;13.796;2024-03-08T09:52:04;27.50;;;16.80;;
62798;SDS011;48842;51.046;13.796;2024-03-08T09:54:30;26.53;;;15.57;;
62798;SDS011;48842;51.046;13.796;2024-03-08T09:56:55;20.63;;;13.90;;
62798;SDS011;48842;51.046;13.796;2024-03-08T09:59:20;25.27;;;15.53;;
62798;SDS011;48842;51.046;13.796;2024-03-08T10:01:52;24.17;;;15.73;;
62798;SDS011;48842;51.046;13.796;2024-03-08T10:04:17;22.23;;;15.70;;
62798;SDS011;48842;51.046;13.796;2024-03-08T10:06:44;23.67;;;16.23;;
62798;SDS011;48842;51.046;13.796;2024-03-08T10:09:12;25.80;;;14.87;;
62798;SDS011;48842;51.046;13.796;2024-03-08T10:11:38;23.37;;;15.93;;
62798;SDS011;48842;51.046;13.796;2024-03-08T10:14:05;28.40;;;16.33;;
62798;SDS011;48842;51.046;13.796;2024-03-08T10:16:32;26.00;;;17.10;;
62798;SDS011;48842;51.046;13.796;2024-03-08T10:18:59;24.93;;;17.00;;
62798;SDS011;48842;51.046;13.796;2024-03-08T10:21:25;26.80;;;16.10;;
62798;SDS011;48842;51.046;13.796;2024-03-08T10:23:51;27.63;;;16.97;;
62798;SDS011;48842;51.046;13.796;2024-03-08T10:26:16;30.37;;;16.90;;
62798;SDS011;48842;51.046;13.796;2024-03-08T10:28:46;30.30;;;18.70;;
62798;SDS011;48842;51.046;13.796;2024-03-08T10:31:16;30.60;;;17.00;;
62798;SDS011;48842;51.046;13.796;2024-03-08T10:33:42;28.37;;;16.37;;
62798;SDS011;48842;51.046;13.796;2024-03-08T10:36:09;26.70;;;17.20;;
62798;SDS011;48842;51.046;13.796;2024-03-08T10:38:39;27.10;;;17.77;;
62798;SDS011;48842;51.046;13.796;2024-03-08T10:41:08;25.23;;;17.40;;
62798;SDS011;48842;51.046;13.796;2024-03-08T10:43:52;33.03;;;19.63;;
62798;SDS011;48842;51.046;13.796;2024-03-08T10:49:31;25.63;;;17.40;;
62798;SDS011;48842;51.046;13.796;2024-03-08T10:52:04;31.23;;;17.60;;
62798;SDS011;48842;51.046;13.796;2024-03-08T10:54:30;37.67;;;18.10;;
62798;SDS011;48842;51.046;13.796;2024-03-08T10:56:56;24.83;;;17.30;;
62798;SDS011;48842;51.046;13.796;2024-03-08T10:59:22;27.33;;;17.63;;
62798;SDS011;48842;51.046;13.796;2024-03-08T11:01:49;26.60;;;16.20;;
62798;SDS011;48842;51.046;13.796;2024-03-08T11:04:15;26.77;;;18.03;;
62798;SDS011;48842;51.046;13.796;2024-03-08T11:06:45;25.50;;;16.73;;
62798;SDS011;48842;51.046;13.796;2024-03-08T11:09:29;30.47;;;18.90;;
62798;SDS011;48842;51.046;13.796;2024-03-08T11:14:46;28.20;;;16.90;;
62798;SDS011;48842;51.046;13.796;2024-03-08T11:17:20;30.90;;;16.70;;
62798;SDS011;48842;51.046;13.796;2024-03-08T11:19:50;23.93;;;15.50;;
62798;SDS011;48842;51.046;13.796;2024-03-08T11:22:25;34.70;;;16.53;;
62798;SDS011;48842;51.046;13.796;2024-03-08T11:24:53;26.73;;;16.53;;
62798;SDS011;48842;51.046;13.796;2024-03-08T11:27:28;21.60;;;13.90;;
62798;SDS011;48842;51.046;13.796;2024-03-08T11:30:06;25.10;;;14.80;;
62798;SDS011;48842;51.046;13.796;2024-03-08T11:32:36;22.30;;;14.47;;
62798;SDS011;48842;51.046;13.796;2024-03-08T11:35:05;28.07;;;16.47;;
62798;SDS011;48842;51.046;13.796;2024-03-08T11:37:32;23.63;;;14.67;;
62798;SDS011;48842;51.046;13.796;2024-03-08T11:40:00;22.20;;;14.97;;
62798;SDS011;48842;51.046;13.796;2024-03-08T11:42:28;18.63;;;13.37;;
62798;SDS011;48842;51.046;13.796;2024-03-08T11:44:53;19.50;;;14.20;;
62798;SDS011;48842;51.046;13.796;2024-03-08T11:47:21;23.10;;;14.60;;
62798;SDS011;48842;51.046;13.796;2024-03-08T11:49:47;25.43;;;14.80;;
62798;SDS011;48842;51.046;13.796;2024-03-08T11:52:15;22.47;;;15.93;;
62798;SDS011;48842;51.046;13.796;2024-03-08T11:54:42;25.03;;;13.03;;
62798;SDS011;48842;51.046;13.796;2024-03-08T11:57:15;17.83;;;13.43;;
62798;SDS011;48842;51.046;13.796;2024-03-08T11:59:49;19.67;;;12.50;;
62798;SDS011;48842;51.046;13.796;2024-03-08T12:02:14;16.07;;;11.57;;
62798;SDS011;48842;51.046;13.796;2024-03-08T12:04:40;16.70;;;10.90;;
62798;SDS011;48842;51.046;13.796;2024-03-08T12:07:09;17.10;;;11.77;;
62798;SDS011;48842;51.046;13.796;2024-03-08T12:09:36;17.40;;;11.43;;
62798;SDS011;48842;51.046;13.796;2024-03-08T12:12:02;15.77;;;11.00;;
62798;SDS011;48842;51.046;13.796;2024-03-08T12:14:32;19.50;;;11.43;;
62798;SDS011;48842;51.046;13.796;2024-03-08T12:16:58;22.80;;;12.53;;
62798;SDS011;48842;51.046;13.796;2024-03-08T12:19:25;13.80;;;10.77;;
62798;SDS011;48842;51.046;13.796;2024-03-08T12:21:52;21.40;;;12.20;;
62798;SDS011;48842;51.046;13.796;2024-03-08T12:24:19;15.87;;;11.30;;
62798;SDS011;48842;51.046;13.796;2024-03-08T12:26:45;17.20;;;11.30;;
62798;SDS011;48842;51.046;13.796;2024-03-08T12:31:47;21.40;;;11.60;;
62798;SDS011;48842;51.046;13.796;2024-03-08T12:34:15;18.33;;;12.47;;
62798;SDS011;48842;51.046;13.796;2024-03-08T12:36:47;13.67;;;10.40;;
62798;SDS011;48842;51.046;13.796;2024-03-08T12:39:15;14.93;;;11.00;;
62798;SDS011;48842;51.046;13.796;2024-03-08T12:41:42;21.90;;;10.83;;
62798;SDS011;48842;51.046;13.796;2024-03-08T12:44:08;19.17;;;11.50;;
62798;SDS011;48842;51.046;13.796;2024-03-08T12:46:36;16.60;;;11.80;;
62798;SDS011;48842;51.046;13.796;2024-03-08T12:49:05;18.17;;;11.47;;
62798;SDS011;48842;51.046;13.796;2024-03-08T12:51:31;15.00;;;11.50;;
62798;SDS011;48842;51.046;13.796;2024-03-08T12:53:58;17.13;;;10.03;;
62798;SDS011;48842;51.046;13.796;2024-03-08T12:56:30;13.60;;;10.50;;
62798;SDS011;48842;51.046;13.796;2024-03-08T12:58:57;15.10;;;11.40;;
62798;SDS011;48842;51.046;13.796;2024-03-08T13:01:23;16.67;;;11.43;;
62798;SDS011;48842;51.046;13.796;2024-03-08T13:03:48;17.73;;;11.93;;
62798;SDS011;48842;51.046;13.796;2024-03-08T13:06:14;15.73;;;11.80;;
62798;SDS011;48842;51.046;13.796;2024-03-08T13:08:40;18.77;;;12.47;;
62798;SDS011;48842;51.046;13.796;2024-03-08T13:11:09;14.77;;;10.30;;
62798;SDS011;48842;51.046;13.796;2024-03-08T13:13:38;22.10;;;12.77;;
62798;SDS011;48842;51.046;13.796;2024-03-08T13:16:05;16.10;;;11.53;;
62798;SDS011;48842;51.046;13.796;2024-03-08T13:18:33;15.53;;;11.70;;
62798;SDS011;48842;51.046;13.796;2024-03-08T13:20:59;22.10;;;11.90;;
62798;SDS011;48842;51.046;13.796;2024-03-08T13:23:29;15.53;;;11.40;;
62798;SDS011;48842;51.046;13.796;2024-03-08T13:25:55;15.40;;;11.20;;
62798;SDS011;48842;51.046;13.796;2024-03-08T13:28:21;16.03;;;11.60;;
62798;SDS011;48842;51.046;13.796;2024-03-08T13:30:52;12.40;;;9.93;;
62798;SDS011;48842;51.046;13.796;2024-03-08T13:33:18;15.10;;;12.03;;
62798;SDS011;48842;51.046;13.796;2024-03-08T13:35:44;17.60;;;12.00;;
62798;SDS011;48842;51.046;13.796;2024-03-08T13:38:09;12.37;;;9.93;;
62798;SDS011;48842;51.046;13.796;2024-03-08T13:40:38;13.80;;;9.77;;
62798;SDS011;48842;51.046;13.796;2024-03-08T13:43:05;14.27;;;11.30;;
62798;SDS011;48842;51.046;13.796;2024-03-08T13:45:32;20.10;;;11.87;;
62798;SDS011;48842;51.046;13.796;2024-03-08T13:47:58;13.80;;;10.60;;
62798;SDS011;48842;51.046;13.796;2024-03-08T13:50:24;16.30;;;11.03;;
62798;SDS011;48842;51.046;13.796;2024-03-08T13:52:51;16.03;;;11.37;;
62798;SDS011;48842;51.046;13.796;2024-03-08T13:55:18;15.53;;;11.30;;
62798;SDS011;48842;51.046;13.796;2024-03-08T13:57:43;14.70;;;11.00;;
62798;SDS011;48842;51.046;13.796;2024-03-08T14:00:10;14.37;;;10.83;;
62798;SDS011;48842;51.046;13.796;2024-03-08T14:02:36;16.90;;;12.03;;
62798;SDS011;48842;51.046;13.796;2024-03-08T14:05:02;14.17;;;10.93;;
62798;SDS011;48842;51.046;13.796;2024-03-08T14:07:27;13.30;;;10.70;;
62798;SDS011;48842;51.046;13.796;2024-03-08T14:09:54;13.87;;;10.13;;
62798;SDS011;48842;51.046;13.796;2024-03-08T14:12:19;11.70;;;10.50;;
62798;SDS011;48842;51.046;13.796;2024-03-08T14:14:45;14.83;;;11.90;;